sensor_id;sensor_type;location;lat;lon;timestamp;P1;durP1;ratioP1;P2;durP2;ratioP2
24305;SDS011;12423;48.768;8.850;2023-11-22T00:01:25;0.20;;;0.20;;
24305;SDS011;12423;48.768;8.850;2023-11-22T00:03:54;0.10;;;0.10;;
24305;SDS011;12423;48.768;8.850;2023-11-22T00:06:23;0.22;;;0.22;;
24305;SDS011;12423;48.768;8.850;2023-11-22T00:08:50;2.08;;;1.88;;
24305;SDS011;12423;48.768;8.850;2023-11-22T00:11:18;0.25;;;0.25;;
24305;SDS011;12423;48.768;8.850;2023-11-22T00:13:46;0.55;;;0.45;;
24305;SDS011;12423;48.768;8.850;2023-11-22T00:16:15;0.85;;;0.65;;
24305;SDS011;12423;48.768;8.850;2023-11-22T00:18:43;0.17;;;0.17;;
24305;SDS011;12423;48.768;8.850;2023-11-22T00:21:12;0.00;;;0.00;;
24305;SDS011;12423;48.768;8.850;2023-11-22T00:23:39;0.00;;;0.00;;
24305;SDS011;12423;48.768;8.850;2023-11-22T00:26:07;0.10;;;0.10;;
24305;SDS011;12423;48.768;8.850;2023-11-22T00:28:35;0.00;;;0.00;;
24305;SDS011;12423;48.768;8.850;2023-11-22T00:31:03;0.10;;;0.10;;
24305;SDS011;12423;48.768;8.850;2023-11-22T00:33:30;0.20;;;0.20;;
24305;SDS011;12423;48.768;8.850;2023-11-22T00:35:58;0.08;;;0.08;;
24305;SDS011;12423;48.768;8.850;2023-11-22T00:38:27;1.10;;;0.52;;
24305;SDS011;12423;48.768;8.850;2023-11-22T00:40:55;0.00;;;0.00;;
24305;SDS011;12423;48.768;8.850;2023-11-22T00:43:23;0.00;;;0.00;;
24305;SDS011;12423;48.768;8.850;2023-11-22T00:45:51;0.52;;;0.47;;
24305;SDS011;12423;48.768;8.850;2023-11-22T00:48:19;0.08;;;0.08;;
24305;SDS011;12423;48.768;8.850;2023-11-22T00:50:47;0.03;;;0.03;;
24305;SDS011;12423;48.768;8.850;2023-11-22T00:53:15;0.00;;;0.00;;
24305;SDS011;12423;48.768;8.850;2023-11-22T00:55:46;0.95;;;0.85;;
24305;SDS011;12423;48.768;8.850;2023-11-22T00:58:14;0.10;;;0.10;;
24305;SDS011;12423;48.768;8.850;2023-11-22T01:00:42;0.10;;;0.10;;
24305;SDS011;12423;48.768;8.850;2023-11-22T01:03:09;0.10;;;0.10;;
24305;SDS011;12423;48.768;8.850;2023-11-22T01:05:39;0.10;;;0.10;;
24305;SDS011;12423;48.768;8.850;2023-11-22T01:10:36;0.00;;;0.00;;
24305;SDS011;12423;48.768;8.850;2023-11-22T01:13:05;0.10;;;0.10;;
24305;SDS011;12423;48.768;8.850;2023-11-22T01:15:33;0.17;;;0.17;;
24305;SDS011;12423;48.768;8.850;2023-11-22T01:18:01;3.00;;;1.98;;
24305;SDS011;12423;48.768;8.850;2023-11-22T01:20:29;0.10;;;0.10;;
24305;SDS011;12423;48.768;8.850;2023-11-22T01:22:57;0.15;;;0.15;;
24305;SDS011;12423;48.768;8.850;2023-11-22T01:25:24;0.30;;;0.30;;
24305;SDS011;12423;48.768;8.850;2023-11-22T01:27:53;0.30;;;0.30;;
24305;SDS011;12423;48.768;8.850;2023-11-22T01:30:22;0.10;;;0.10;;
24305;SDS011;12423;48.768;8.850;2023-11-22T01:32:50;0.10;;;0.10;;
24305;SDS011;12423;48.768;8.850;2023-11-22T01:35:18;0.00;;;0.00;;
24305;SDS011;12423;48.768;8.850;2023-11-22T01:37:45;0.30;;;0.30;;
24305;SDS011;12423;48.768;8.850;2023-11-22T01:40:14;0.20;;;0.20;;
24305;SDS011;12423;48.768;8.850;2023-11-22T01:42:42;0.10;;;0.10;;
24305;SDS011;12423;48.768;8.850;2023-11-22T01:45:11;0.20;;;0.20;;
24305;SDS011;12423;48.768;8.850;2023-11-22T01:47:41;0.00;;;0.00;;
24305;SDS011;12423;48.768;8.850;2023-11-22T01:50:10;0.10;;;0.10;;
24305;SDS011;12423;48.768;8.850;2023-11-22T01:52:38;0.10;;;0.10;;
24305;SDS011;12423;48.768;8.850;2023-11-22T01:55:06;0.10;;;0.10;;
24305;SDS011;12423;48.768;8.850;2023-11-22T02:00:04;0.10;;;0.10;;
24305;SDS011;12423;48.768;8.850;2023-11-22T02:02:42;0.00;;;0.00;;
24305;SDS011;12423;48.768;8.850;2023-11-22T02:05:11;0.85;;;0.52;;
24305;SDS011;12423;48.768;8.850;2023-11-22T02:07:39;0.73;;;0.30;;
24305;SDS011;12423;48.768;8.850;2023-11-22T02:10:08;0.00;;;0.00;;
24305;SDS011;12423;48.768;8.850;2023-11-22T02:12:36;0.10;;;0.10;;
24305;SDS011;12423;48.768;8.850;2023-11-22T02:15:05;0.25;;;0.25;;
24305;SDS011;12423;48.768;8.850;2023-11-22T02:17:33;0.10;;;0.10;;
24305;SDS011;12423;48.768;8.850;2023-11-22T02:20:04;0.10;;;0.10;;
24305;SDS011;12423;48.768;8.850;2023-11-22T02:22:42;0.10;;;0.10;;
24305;SDS011;12423;48.768;8.850;2023-11-22T02:25:11;0.38;;;0.35;;
24305;SDS011;12423;48.768;8.850;2023-11-22T02:30:07;0.00;;;0.00;;
24305;SDS011;12423;48.768;8.850;2023-11-22T02:32:37;0.10;;;0.10;;
24305;SDS011;12423;48.768;8.850;2023-11-22T02:35:05;1.17;;;1.08;;
24305;SDS011;12423;48.768;8.850;2023-11-22T02:37:34;0.10;;;0.10;;
24305;SDS011;12423;48.768;8.850;2023-11-22T02:40:04;0.10;;;0.10;;
24305;SDS011;12423;48.768;8.850;2023-11-22T02:42:39;0.47;;;0.45;;
24305;SDS011;12423;48.768;8.850;2023-11-22T02:45:07;0.10;;;0.10;;
24305;SDS011;12423;48.768;8.850;2023-11-22T02:47:35;0.43;;;0.35;;
24305;SDS011;12423;48.768;8.850;2023-11-22T02:50:03;0.10;;;0.10;;
24305;SDS011;12423;48.768;8.850;2023-11-22T02:52:32;0.20;;;0.20;;
24305;SDS011;12423;48.768;8.850;2023-11-22T02:54:59;0.10;;;0.10;;
24305;SDS011;12423;48.768;8.850;2023-11-22T02:57:27;0.10;;;0.10;;
24305;SDS011;12423;48.768;8.850;2023-11-22T02:59:56;0.00;;;0.00;;
24305;SDS011;12423;48.768;8.850;2023-11-22T03:02:24;0.10;;;0.10;;
24305;SDS011;12423;48.768;8.850;2023-11-22T03:04:52;0.10;;;0.10;;
24305;SDS011;12423;48.768;8.850;2023-11-22T03:07:20;0.10;;;0.10;;
24305;SDS011;12423;48.768;8.850;2023-11-22T03:09:48;0.20;;;0.20;;
24305;SDS011;12423;48.768;8.850;2023-11-22T03:12:15;0.00;;;0.00;;
24305;SDS011;12423;48.768;8.850;2023-11-22T03:14:44;0.22;;;0.22;;
24305;SDS011;12423;48.768;8.850;2023-11-22T03:17:14;0.00;;;0.00;;
24305;SDS011;12423;48.768;8.850;2023-11-22T03:19:42;0.20;;;0.20;;
24305;SDS011;12423;48.768;8.850;2023-11-22T03:22:11;0.03;;;0.03;;
24305;SDS011;12423;48.768;8.850;2023-11-22T03:24:38;0.08;;;0.08;;
24305;SDS011;12423;48.768;8.850;2023-11-22T03:27:06;0.10;;;0.10;;
24305;SDS011;12423;48.768;8.850;2023-11-22T03:29:34;0.10;;;0.10;;
24305;SDS011;12423;48.768;8.850;2023-11-22T03:32:02;0.20;;;0.20;;
24305;SDS011;12423;48.768;8.850;2023-11-22T03:34:31;0.10;;;0.10;;
24305;SDS011;12423;48.768;8.850;2023-11-22T03:36:59;0.40;;;0.40;;
24305;SDS011;12423;48.768;8.850;2023-11-22T03:39:27;0.22;;;0.22;;
24305;SDS011;12423;48.768;8.850;2023-11-22T03:41:54;0.10;;;0.10;;
24305;SDS011;12423;48.768;8.850;2023-11-22T03:44:23;0.10;;;0.10;;
24305;SDS011;12423;48.768;8.850;2023-11-22T03:46:51;0.38;;;0.32;;
24305;SDS011;12423;48.768;8.850;2023-11-22T03:49:19;1.08;;;1.00;;
24305;SDS011;12423;48.768;8.850;2023-11-22T03:51:48;0.10;;;0.10;;
24305;SDS011;12423;48.768;8.850;2023-11-22T03:54:15;0.10;;;0.10;;
24305;SDS011;12423;48.768;8.850;2023-11-22T03:56:42;0.38;;;0.38;;
24305;SDS011;12423;48.768;8.850;2023-11-22T03:59:10;0.10;;;0.10;;
24305;SDS011;12423;48.768;8.850;2023-11-22T04:01:47;0.10;;;0.10;;
24305;SDS011;12423;48.768;8.850;2023-11-22T04:04:15;0.10;;;0.10;;
24305;SDS011;12423;48.768;8.850;2023-11-22T04:06:43;0.75;;;0.32;;
24305;SDS011;12423;48.768;8.850;2023-11-22T04:09:12;0.52;;;0.52;;
24305;SDS011;12423;48.768;8.850;2023-11-22T04:11:40;0.20;;;0.20;;
24305;SDS011;12423;48.768;8.850;2023-11-22T04:14:08;0.00;;;0.00;;
24305;SDS011;12423;48.768;8.850;2023-11-22T04:16:36;0.90;;;0.90;;
24305;SDS011;12423;48.768;8.850;2023-11-22T04:19:04;0.10;;;0.10;;
24305;SDS011;12423;48.768;8.850;2023-11-22T04:21:32;1.95;;;0.77;;
24305;SDS011;12423;48.768;8.850;2023-11-22T04:24:00;0.10;;;0.10;;
24305;SDS011;12423;48.768;8.850;2023-11-22T04:26:29;0.10;;;0.10;;
24305;SDS011;12423;48.768;8.850;2023-11-22T04:28:58;0.95;;;0.85;;
24305;SDS011;12423;48.768;8.850;2023-11-22T04:31:25;0.43;;;0.35;;
24305;SDS011;12423;48.768;8.850;2023-11-22T04:33:53;0.05;;;0.05;;
24305;SDS011;12423;48.768;8.850;2023-11-22T04:36:24;0.10;;;0.10;;
24305;SDS011;12423;48.768;8.850;2023-11-22T04:38:51;0.20;;;0.20;;
24305;SDS011;12423;48.768;8.850;2023-11-22T04:41:19;0.10;;;0.10;;
24305;SDS011;12423;48.768;8.850;2023-11-22T04:43:48;0.10;;;0.10;;
24305;SDS011;12423;48.768;8.850;2023-11-22T04:46:16;0.28;;;0.28;;
24305;SDS011;12423;48.768;8.850;2023-11-22T04:48:44;0.10;;;0.10;;
24305;SDS011;12423;48.768;8.850;2023-11-22T04:51:14;0.95;;;0.95;;
24305;SDS011;12423;48.768;8.850;2023-11-22T04:53:42;0.10;;;0.10;;
24305;SDS011;12423;48.768;8.850;2023-11-22T04:56:11;0.10;;;0.10;;
24305;SDS011;12423;48.768;8.850;2023-11-22T04:58:39;0.10;;;0.10;;
24305;SDS011;12423;48.768;8.850;2023-11-22T05:01:08;0.15;;;0.15;;
24305;SDS011;12423;48.768;8.850;2023-11-22T05:03:37;0.10;;;0.10;;
24305;SDS011;12423;48.768;8.850;2023-11-22T05:06:05;0.10;;;0.10;;
24305;SDS011;12423;48.768;8.850;2023-11-22T05:08:33;1.20;;;1.13;;
24305;SDS011;12423;48.768;8.850;2023-11-22T05:11:01;0.10;;;0.10;;
24305;SDS011;12423;48.768;8.850;2023-11-22T05:15:58;0.52;;;0.40;;
24305;SDS011;12423;48.768;8.850;2023-11-22T05:18:28;0.10;;;0.10;;
24305;SDS011;12423;48.768;8.850;2023-11-22T05:20:56;9.15;;;1.75;;
24305;SDS011;12423;48.768;8.850;2023-11-22T05:23:24;0.10;;;0.10;;
24305;SDS011;12423;48.768;8.850;2023-11-22T05:25:51;3.10;;;1.55;;
24305;SDS011;12423;48.768;8.850;2023-11-22T05:28:19;1.25;;;0.90;;
24305;SDS011;12423;48.768;8.850;2023-11-22T05:30:47;1.02;;;0.70;;
24305;SDS011;12423;48.768;8.850;2023-11-22T05:33:15;0.10;;;0.10;;
24305;SDS011;12423;48.768;8.850;2023-11-22T05:35:44;0.10;;;0.10;;
24305;SDS011;12423;48.768;8.850;2023-11-22T05:38:11;0.28;;;0.17;;
24305;SDS011;12423;48.768;8.850;2023-11-22T05:40:39;0.10;;;0.10;;
24305;SDS011;12423;48.768;8.850;2023-11-22T05:43:09;0.10;;;0.10;;
24305;SDS011;12423;48.768;8.850;2023-11-22T05:45:38;0.03;;;0.03;;
24305;SDS011;12423;48.768;8.850;2023-11-22T05:48:06;0.10;;;0.10;;
24305;SDS011;12423;48.768;8.850;2023-11-22T05:50:34;0.10;;;0.10;;
24305;SDS011;12423;48.768;8.850;2023-11-22T05:53:03;0.88;;;0.88;;
24305;SDS011;12423;48.768;8.850;2023-11-22T05:55:30;0.10;;;0.10;;
24305;SDS011;12423;48.768;8.850;2023-11-22T05:57:58;0.00;;;0.00;;
24305;SDS011;12423;48.768;8.850;2023-11-22T06:00:26;0.10;;;0.10;;
24305;SDS011;12423;48.768;8.850;2023-11-22T06:02:53;0.10;;;0.10;;
24305;SDS011;12423;48.768;8.850;2023-11-22T06:05:21;0.10;;;0.10;;
24305;SDS011;12423;48.768;8.850;2023-11-22T06:07:49;0.50;;;0.50;;
24305;SDS011;12423;48.768;8.850;2023-11-22T06:10:19;0.05;;;0.05;;
24305;SDS011;12423;48.768;8.850;2023-11-22T06:12:46;0.10;;;0.10;;
24305;SDS011;12423;48.768;8.850;2023-11-22T06:15:14;0.10;;;0.10;;
24305;SDS011;12423;48.768;8.850;2023-11-22T06:17:42;0.10;;;0.10;;
24305;SDS011;12423;48.768;8.850;2023-11-22T06:20:10;0.10;;;0.10;;
24305;SDS011;12423;48.768;8.850;2023-11-22T06:22:38;0.10;;;0.10;;
24305;SDS011;12423;48.768;8.850;2023-11-22T06:25:08;0.20;;;0.20;;
24305;SDS011;12423;48.768;8.850;2023-11-22T06:27:38;0.10;;;0.10;;
24305;SDS011;12423;48.768;8.850;2023-11-22T06:30:06;0.28;;;0.28;;
24305;SDS011;12423;48.768;8.850;2023-11-22T06:35:03;0.10;;;0.10;;
24305;SDS011;12423;48.768;8.850;2023-11-22T06:37:35;0.10;;;0.10;;
24305;SDS011;12423;48.768;8.850;2023-11-22T06:40:03;0.10;;;0.10;;
24305;SDS011;12423;48.768;8.850;2023-11-22T06:42:31;0.10;;;0.10;;
24305;SDS011;12423;48.768;8.850;2023-11-22T06:45:01;0.30;;;0.30;;
24305;SDS011;12423;48.768;8.850;2023-11-22T06:47:28;0.10;;;0.10;;
24305;SDS011;12423;48.768;8.850;2023-11-22T06:49:56;0.10;;;0.10;;
24305;SDS011;12423;48.768;8.850;2023-11-22T06:52:24;0.03;;;0.03;;
24305;SDS011;12423;48.768;8.850;2023-11-22T06:54:52;0.20;;;0.20;;
24305;SDS011;12423;48.768;8.850;2023-11-22T06:57:20;0.10;;;0.10;;
24305;SDS011;12423;48.768;8.850;2023-11-22T06:59:54;0.10;;;0.10;;
24305;SDS011;12423;48.768;8.850;2023-11-22T07:02:23;0.10;;;0.10;;
24305;SDS011;12423;48.768;8.850;2023-11-22T07:04:51;0.28;;;0.28;;
24305;SDS011;12423;48.768;8.850;2023-11-22T07:07:20;0.13;;;0.13;;
24305;SDS011;12423;48.768;8.850;2023-11-22T07:09:47;0.08;;;0.08;;
24305;SDS011;12423;48.768;8.850;2023-11-22T07:12:16;2.63;;;2.00;;
24305;SDS011;12423;48.768;8.850;2023-11-22T07:14:45;0.10;;;0.10;;
24305;SDS011;12423;48.768;8.850;2023-11-22T07:17:14;0.22;;;0.22;;
24305;SDS011;12423;48.768;8.850;2023-11-22T07:19:45;0.08;;;0.08;;
24305;SDS011;12423;48.768;8.850;2023-11-22T07:22:14;0.63;;;0.63;;
24305;SDS011;12423;48.768;8.850;2023-11-22T07:24:46;0.25;;;0.25;;
24305;SDS011;12423;48.768;8.850;2023-11-22T07:27:14;0.10;;;0.10;;
24305;SDS011;12423;48.768;8.850;2023-11-22T07:29:42;0.00;;;0.00;;
24305;SDS011;12423;48.768;8.850;2023-11-22T07:32:12;0.20;;;0.20;;
24305;SDS011;12423;48.768;8.850;2023-11-22T07:34:40;0.10;;;0.10;;
24305;SDS011;12423;48.768;8.850;2023-11-22T07:37:09;0.47;;;0.47;;
24305;SDS011;12423;48.768;8.850;2023-11-22T07:39:39;0.90;;;0.90;;
24305;SDS011;12423;48.768;8.850;2023-11-22T07:42:06;0.10;;;0.10;;
24305;SDS011;12423;48.768;8.850;2023-11-22T07:44:35;0.03;;;0.03;;
24305;SDS011;12423;48.768;8.850;2023-11-22T07:47:04;0.20;;;0.20;;
24305;SDS011;12423;48.768;8.850;2023-11-22T07:49:38;0.03;;;0.03;;
24305;SDS011;12423;48.768;8.850;2023-11-22T07:52:06;0.10;;;0.10;;
24305;SDS011;12423;48.768;8.850;2023-11-22T07:54:35;0.10;;;0.10;;
24305;SDS011;12423;48.768;8.850;2023-11-22T07:57:03;0.10;;;0.10;;
24305;SDS011;12423;48.768;8.850;2023-11-22T07:59:31;0.10;;;0.10;;
24305;SDS011;12423;48.768;8.850;2023-11-22T08:01:58;0.13;;;0.13;;
24305;SDS011;12423;48.768;8.850;2023-11-22T08:04:27;0.10;;;0.10;;
24305;SDS011;12423;48.768;8.850;2023-11-22T08:06:58;0.25;;;0.25;;
24305;SDS011;12423;48.768;8.850;2023-11-22T08:09:27;0.30;;;0.30;;
24305;SDS011;12423;48.768;8.850;2023-11-22T08:12:00;0.10;;;0.10;;
24305;SDS011;12423;48.768;8.850;2023-11-22T08:14:31;0.10;;;0.10;;
24305;SDS011;12423;48.768;8.850;2023-11-22T08:17:00;0.10;;;0.10;;
24305;SDS011;12423;48.768;8.850;2023-11-22T08:19:28;0.10;;;0.10;;
24305;SDS011;12423;48.768;8.850;2023-11-22T08:21:56;0.90;;;0.90;;
24305;SDS011;12423;48.768;8.850;2023-11-22T08:24:23;0.60;;;0.60;;
24305;SDS011;12423;48.768;8.850;2023-11-22T08:26:51;0.00;;;0.00;;
24305;SDS011;12423;48.768;8.850;2023-11-22T08:29:20;0.00;;;0.00;;
24305;SDS011;12423;48.768;8.850;2023-11-22T08:31:48;0.10;;;0.10;;
24305;SDS011;12423;48.768;8.850;2023-11-22T08:34:17;0.10;;;0.10;;
24305;SDS011;12423;48.768;8.850;2023-11-22T08:36:45;0.10;;;0.10;;
24305;SDS011;12423;48.768;8.850;2023-11-22T08:39:12;0.10;;;0.10;;
24305;SDS011;12423;48.768;8.850;2023-11-22T08:41:40;0.30;;;0.30;;
24305;SDS011;12423;48.768;8.850;2023-11-22T08:44:08;0.22;;;0.22;;
24305;SDS011;12423;48.768;8.850;2023-11-22T08:46:37;1.00;;;0.95;;
24305;SDS011;12423;48.768;8.850;2023-11-22T08:49:05;0.10;;;0.10;;
24305;SDS011;12423;48.768;8.850;2023-11-22T08:51:32;0.15;;;0.15;;
24305;SDS011;12423;48.768;8.850;2023-11-22T08:54:01;0.10;;;0.10;;
24305;SDS011;12423;48.768;8.850;2023-11-22T08:56:29;0.17;;;0.17;;
24305;SDS011;12423;48.768;8.850;2023-11-22T08:58:56;0.00;;;0.00;;
24305;SDS011;12423;48.768;8.850;2023-11-22T09:01:24;0.10;;;0.10;;
24305;SDS011;12423;48.768;8.850;2023-11-22T09:03:54;0.10;;;0.10;;
24305;SDS011;12423;48.768;8.850;2023-11-22T09:06:23;0.10;;;0.10;;
24305;SDS011;12423;48.768;8.850;2023-11-22T09:08:51;0.10;;;0.10;;
24305;SDS011;12423;48.768;8.850;2023-11-22T09:11:19;0.10;;;0.10;;
24305;SDS011;12423;48.768;8.850;2023-11-22T09:13:48;0.45;;;0.45;;
24305;SDS011;12423;48.768;8.850;2023-11-22T09:16:17;1.38;;;1.27;;
24305;SDS011;12423;48.768;8.850;2023-11-22T09:18:46;2.53;;;2.10;;
24305;SDS011;12423;48.768;8.850;2023-11-22T09:21:16;0.25;;;0.25;;
24305;SDS011;12423;48.768;8.850;2023-11-22T09:23:43;0.30;;;0.22;;
24305;SDS011;12423;48.768;8.850;2023-11-22T09:26:11;0.35;;;0.35;;
24305;SDS011;12423;48.768;8.850;2023-11-22T09:28:39;0.47;;;0.40;;
24305;SDS011;12423;48.768;8.850;2023-11-22T09:31:07;0.10;;;0.10;;
24305;SDS011;12423;48.768;8.850;2023-11-22T09:33:35;0.50;;;0.50;;
24305;SDS011;12423;48.768;8.850;2023-11-22T09:36:03;0.20;;;0.20;;
24305;SDS011;12423;48.768;8.850;2023-11-22T09:38:37;1.13;;;1.10;;
24305;SDS011;12423;48.768;8.850;2023-11-22T09:41:05;0.20;;;0.20;;
24305;SDS011;12423;48.768;8.850;2023-11-22T09:43:35;0.30;;;0.30;;
24305;SDS011;12423;48.768;8.850;2023-11-22T09:46:03;0.20;;;0.20;;
24305;SDS011;12423;48.768;8.850;2023-11-22T09:48:31;0.30;;;0.30;;
24305;SDS011;12423;48.768;8.850;2023-11-22T09:51:01;0.20;;;0.20;;
24305;SDS011;12423;48.768;8.850;2023-11-22T09:53:32;0.10;;;0.10;;
24305;SDS011;12423;48.768;8.850;2023-11-22T09:56:03;0.10;;;0.10;;
24305;SDS011;12423;48.768;8.850;2023-11-22T09:58:33;0.10;;;0.10;;
24305;SDS011;12423;48.768;8.850;2023-11-22T10:01:01;0.00;;;0.00;;
24305;SDS011;12423;48.768;8.850;2023-11-22T10:03:30;0.20;;;0.20;;
24305;SDS011;12423;48.768;8.850;2023-11-22T10:05:58;0.00;;;0.00;;
24305;SDS011;12423;48.768;8.850;2023-11-22T10:08:26;0.10;;;0.10;;
24305;SDS011;12423;48.768;8.850;2023-11-22T10:10:56;0.30;;;0.30;;
24305;SDS011;12423;48.768;8.850;2023-11-22T10:13:25;0.10;;;0.10;;
24305;SDS011;12423;48.768;8.850;2023-11-22T10:15:54;0.32;;;0.32;;
24305;SDS011;12423;48.768;8.850;2023-11-22T10:18:21;0.10;;;0.10;;
24305;SDS011;12423;48.768;8.850;2023-11-22T10:20:51;0.00;;;0.00;;
24305;SDS011;12423;48.768;8.850;2023-11-22T10:23:19;0.20;;;0.20;;
24305;SDS011;12423;48.768;8.850;2023-11-22T10:25:51;0.28;;;0.28;;
24305;SDS011;12423;48.768;8.850;2023-11-22T10:28:20;0.00;;;0.00;;
24305;SDS011;12423;48.768;8.850;2023-11-22T10:30:50;0.10;;;0.10;;
24305;SDS011;12423;48.768;8.850;2023-11-22T10:33:18;0.25;;;0.25;;
24305;SDS011;12423;48.768;8.850;2023-11-22T10:35:50;0.73;;;0.57;;
24305;SDS011;12423;48.768;8.850;2023-11-22T10:40:47;0.30;;;0.30;;
24305;SDS011;12423;48.768;8.850;2023-11-22T10:43:18;0.10;;;0.10;;
24305;SDS011;12423;48.768;8.850;2023-11-22T10:45:47;0.10;;;0.10;;
24305;SDS011;12423;48.768;8.850;2023-11-22T10:48:19;0.20;;;0.20;;
24305;SDS011;12423;48.768;8.850;2023-11-22T10:50:47;0.10;;;0.10;;
24305;SDS011;12423;48.768;8.850;2023-11-22T10:53:16;0.10;;;0.10;;
24305;SDS011;12423;48.768;8.850;2023-11-22T10:55:48;0.10;;;0.10;;
24305;SDS011;12423;48.768;8.850;2023-11-22T10:58:19;0.65;;;0.60;;
24305;SDS011;12423;48.768;8.850;2023-11-22T11:00:47;0.22;;;0.22;;
24305;SDS011;12423;48.768;8.850;2023-11-22T11:05:49;0.10;;;0.10;;
24305;SDS011;12423;48.768;8.850;2023-11-22T11:08:20;0.20;;;0.20;;
24305;SDS011;12423;48.768;8.850;2023-11-22T11:10:50;0.20;;;0.20;;
24305;SDS011;12423;48.768;8.850;2023-11-22T11:13:19;0.13;;;0.13;;
24305;SDS011;12423;48.768;8.850;2023-11-22T11:15:46;0.25;;;0.25;;
24305;SDS011;12423;48.768;8.850;2023-11-22T11:18:15;0.10;;;0.10;;
24305;SDS011;12423;48.768;8.850;2023-11-22T11:23:17;0.10;;;0.10;;
24305;SDS011;12423;48.768;8.850;2023-11-22T11:25:47;0.32;;;0.32;;
24305;SDS011;12423;48.768;8.850;2023-11-22T11:28:15;0.20;;;0.20;;
24305;SDS011;12423;48.768;8.850;2023-11-22T11:33:13;0.17;;;0.17;;
24305;SDS011;12423;48.768;8.850;2023-11-22T11:35:44;0.10;;;0.10;;
24305;SDS011;12423;48.768;8.850;2023-11-22T11:38:16;0.32;;;0.32;;
24305;SDS011;12423;48.768;8.850;2023-11-22T11:40:47;0.47;;;0.47;;
24305;SDS011;12423;48.768;8.850;2023-11-22T11:43:19;0.10;;;0.10;;
24305;SDS011;12423;48.768;8.850;2023-11-22T11:45:48;0.10;;;0.10;;
24305;SDS011;12423;48.768;8.850;2023-11-22T11:48:16;0.30;;;0.30;;
24305;SDS011;12423;48.768;8.850;2023-11-22T11:53:13;0.10;;;0.10;;
24305;SDS011;12423;48.768;8.850;2023-11-22T11:55:47;0.20;;;0.20;;
24305;SDS011;12423;48.768;8.850;2023-11-22T11:58:17;0.10;;;0.10;;
24305;SDS011;12423;48.768;8.850;2023-11-22T12:00:46;0.00;;;0.00;;
24305;SDS011;12423;48.768;8.850;2023-11-22T12:03:13;0.35;;;0.35;;
24305;SDS011;12423;48.768;8.850;2023-11-22T12:05:47;0.10;;;0.10;;
24305;SDS011;12423;48.768;8.850;2023-11-22T12:08:16;0.10;;;0.10;;
24305;SDS011;12423;48.768;8.850;2023-11-22T12:10:46;0.13;;;0.13;;
24305;SDS011;12423;48.768;8.850;2023-11-22T12:13:16;0.55;;;0.55;;
24305;SDS011;12423;48.768;8.850;2023-11-22T12:15:44;0.10;;;0.10;;
24305;SDS011;12423;48.768;8.850;2023-11-22T12:18:12;0.00;;;0.00;;
24305;SDS011;12423;48.768;8.850;2023-11-22T12:20:40;0.03;;;0.03;;
24305;SDS011;12423;48.768;8.850;2023-11-22T12:23:08;0.10;;;0.10;;
24305;SDS011;12423;48.768;8.850;2023-11-22T12:25:36;1.38;;;1.27;;
24305;SDS011;12423;48.768;8.850;2023-11-22T12:28:05;1.25;;;1.15;;
24305;SDS011;12423;48.768;8.850;2023-11-22T12:30:34;0.30;;;0.30;;
24305;SDS011;12423;48.768;8.850;2023-11-22T12:33:05;0.10;;;0.10;;
24305;SDS011;12423;48.768;8.850;2023-11-22T12:38:04;0.10;;;0.10;;
24305;SDS011;12423;48.768;8.850;2023-11-22T12:40:33;0.30;;;0.30;;
24305;SDS011;12423;48.768;8.850;2023-11-22T12:43:01;0.17;;;0.17;;
24305;SDS011;12423;48.768;8.850;2023-11-22T12:45:31;0.95;;;0.95;;
24305;SDS011;12423;48.768;8.850;2023-11-22T12:48:19;0.63;;;0.63;;
24305;SDS011;12423;48.768;8.850;2023-11-22T12:50:48;0.10;;;0.10;;
24305;SDS011;12423;48.768;8.850;2023-11-22T12:53:16;0.03;;;0.03;;
24305;SDS011;12423;48.768;8.850;2023-11-22T12:55:45;0.65;;;0.65;;
24305;SDS011;12423;48.768;8.850;2023-11-22T12:58:15;0.30;;;0.30;;
24305;SDS011;12423;48.768;8.850;2023-11-22T13:00:45;0.30;;;0.30;;
24305;SDS011;12423;48.768;8.850;2023-11-22T13:03:14;0.10;;;0.10;;
24305;SDS011;12423;48.768;8.850;2023-11-22T13:05:42;0.30;;;0.30;;
24305;SDS011;12423;48.768;8.850;2023-11-22T13:10:39;0.30;;;0.30;;
24305;SDS011;12423;48.768;8.850;2023-11-22T13:13:07;0.47;;;0.47;;
24305;SDS011;12423;48.768;8.850;2023-11-22T13:15:36;0.10;;;0.10;;
24305;SDS011;12423;48.768;8.850;2023-11-22T13:18:05;0.10;;;0.10;;
24305;SDS011;12423;48.768;8.850;2023-11-22T13:20:34;0.43;;;0.43;;
24305;SDS011;12423;48.768;8.850;2023-11-22T13:23:05;0.10;;;0.10;;
24305;SDS011;12423;48.768;8.850;2023-11-22T13:25:33;0.10;;;0.10;;
24305;SDS011;12423;48.768;8.850;2023-11-22T13:28:01;0.10;;;0.10;;
24305;SDS011;12423;48.768;8.850;2023-11-22T13:32:59;0.10;;;0.10;;
24305;SDS011;12423;48.768;8.850;2023-11-22T13:35:28;1.45;;;0.73;;
24305;SDS011;12423;48.768;8.850;2023-11-22T13:37:57;0.77;;;0.77;;
24305;SDS011;12423;48.768;8.850;2023-11-22T13:40:28;0.13;;;0.13;;
24305;SDS011;12423;48.768;8.850;2023-11-22T13:45:25;0.20;;;0.20;;
24305;SDS011;12423;48.768;8.850;2023-11-22T13:47:53;0.63;;;0.63;;
24305;SDS011;12423;48.768;8.850;2023-11-22T13:50:25;0.00;;;0.00;;
24305;SDS011;12423;48.768;8.850;2023-11-22T13:55:23;0.10;;;0.10;;
24305;SDS011;12423;48.768;8.850;2023-11-22T13:57:52;0.10;;;0.10;;
24305;SDS011;12423;48.768;8.850;2023-11-22T14:00:21;0.10;;;0.10;;
24305;SDS011;12423;48.768;8.850;2023-11-22T14:02:51;0.98;;;0.95;;
24305;SDS011;12423;48.768;8.850;2023-11-22T14:05:22;0.98;;;0.55;;
24305;SDS011;12423;48.768;8.850;2023-11-22T14:07:52;0.88;;;0.88;;
24305;SDS011;12423;48.768;8.850;2023-11-22T14:10:21;0.45;;;0.45;;
24305;SDS011;12423;48.768;8.850;2023-11-22T14:12:49;0.25;;;0.25;;
24305;SDS011;12423;48.768;8.850;2023-11-22T14:15:17;0.20;;;0.20;;
24305;SDS011;12423;48.768;8.850;2023-11-22T14:17:46;0.73;;;0.73;;
24305;SDS011;12423;48.768;8.850;2023-11-22T14:20:17;0.10;;;0.10;;
24305;SDS011;12423;48.768;8.850;2023-11-22T14:22:45;0.20;;;0.20;;
24305;SDS011;12423;48.768;8.850;2023-11-22T14:25:14;0.10;;;0.10;;
24305;SDS011;12423;48.768;8.850;2023-11-22T14:27:42;0.10;;;0.10;;
24305;SDS011;12423;48.768;8.850;2023-11-22T14:32:41;0.03;;;0.03;;
24305;SDS011;12423;48.768;8.850;2023-11-22T14:35:09;0.10;;;0.10;;
24305;SDS011;12423;48.768;8.850;2023-11-22T14:37:37;0.30;;;0.30;;
24305;SDS011;12423;48.768;8.850;2023-11-22T14:40:06;0.35;;;0.35;;
24305;SDS011;12423;48.768;8.850;2023-11-22T14:42:41;0.10;;;0.10;;
24305;SDS011;12423;48.768;8.850;2023-11-22T14:45:11;0.10;;;0.10;;
24305;SDS011;12423;48.768;8.850;2023-11-22T14:47:39;0.03;;;0.03;;
24305;SDS011;12423;48.768;8.850;2023-11-22T14:50:10;0.98;;;0.80;;
24305;SDS011;12423;48.768;8.850;2023-11-22T14:52:42;0.10;;;0.10;;
24305;SDS011;12423;48.768;8.850;2023-11-22T14:55:10;0.10;;;0.10;;
24305;SDS011;12423;48.768;8.850;2023-11-22T14:57:39;6.15;;;3.72;;
24305;SDS011;12423;48.768;8.850;2023-11-22T15:00:10;6.82;;;4.05;;
24305;SDS011;12423;48.768;8.850;2023-11-22T15:02:40;7.18;;;3.92;;
24305;SDS011;12423;48.768;8.850;2023-11-22T15:05:09;8.38;;;4.35;;
24305;SDS011;12423;48.768;8.850;2023-11-22T15:07:39;13.45;;;4.80;;
24305;SDS011;12423;48.768;8.850;2023-11-22T15:10:08;7.75;;;5.20;;
24305;SDS011;12423;48.768;8.850;2023-11-22T15:12:36;7.63;;;3.58;;
24305;SDS011;12423;48.768;8.850;2023-11-22T15:15:07;8.73;;;5.03;;
24305;SDS011;12423;48.768;8.850;2023-11-22T15:17:36;11.55;;;4.72;;
24305;SDS011;12423;48.768;8.850;2023-11-22T15:22:35;7.70;;;4.38;;
24305;SDS011;12423;48.768;8.850;2023-11-22T15:25:03;7.78;;;4.10;;
24305;SDS011;12423;48.768;8.850;2023-11-22T15:27:32;8.85;;;4.28;;
24305;SDS011;12423;48.768;8.850;2023-11-22T15:30:00;6.20;;;4.07;;
24305;SDS011;12423;48.768;8.850;2023-11-22T15:34:58;9.20;;;5.05;;
24305;SDS011;12423;48.768;8.850;2023-11-22T15:37:26;8.70;;;4.93;;
24305;SDS011;12423;48.768;8.850;2023-11-22T15:39:55;11.10;;;5.35;;
24305;SDS011;12423;48.768;8.850;2023-11-22T15:42:23;20.85;;;8.57;;